Time;durP1;ratioP1;P1;durP2;ratioP2;P2;SDS_P1;SDS_P2;PMS_P1;PMS_P2;Temp;Humidity;BMP_temperature;BMP_pressure;BME280_temperature;BME280_humidity;BME280_pressure;Samples;Min_cycle;Max_cycle;Signal;HPM_P1;HPM_P2
2020/12/28 00:06:22;;;;;;;0.50;0.40;;;10.00;99.90;;;;;;20693749;28;20501;-80
2020/12/28 00:16:24;;;;;;;0.20;0.10;;;10.00;99.90;;;;;;20700034;28;20976;-79
2020/12/28 00:26:28;;;;;;;0.20;0.10;;;10.20;99.90;;;;;;20688251;28;20195;-73
2020/12/28 00:36:31;;;;;;;0.20;0.10;;;10.30;99.90;;;;;;20696932;28;20222;-73
2020/12/28 00:46:35;;;;;;;0.87;0.70;;;10.20;99.90;;;;;;20706433;28;20195;-72
2020/12/28 00:56:37;;;;;;;0.40;0.20;;;10.50;99.90;;;;;;20709610;28;20222;-73
2020/12/28 01:06:44;;;;;;;0.20;0.20;;;10.10;99.90;;;;;;20722432;22;20238;-78
2020/12/28 01:16:46;;;;;;;0.20;0.10;;;9.90;99.90;;;;;;20707290;28;20238;-77
2020/12/28 01:26:50;;;;;;;0.23;0.23;;;9.70;99.90;;;;;;20706382;28;20249;-79
2020/12/28 01:36:53;;;;;;;0.50;0.50;;;9.70;99.90;;;;;;20705435;28;20678;-78
2020/12/28 01:46:56;;;;;;;0.20;0.10;;;10.00;99.90;;;;;;20702958;28;20199;-78
2020/12/28 01:56:59;;;;;;;0.20;0.10;;;10.20;99.90;;;;;;20754424;28;20754;-78
2020/12/28 02:07:04;;;;;;;0.20;0.10;;;10.00;99.90;;;;;;20733316;22;20245;-71
2020/12/28 02:17:07;;;;;;;0.20;0.13;;;10.20;99.90;;;;;;20701842;28;20237;-79
2020/12/28 02:27:11;;;;;;;0.20;0.10;;;10.50;99.90;;;;;;20705537;28;20198;-73
2020/12/28 02:37:15;;;;;;;0.20;0.10;;;10.60;99.90;;;;;;20714944;28;20227;-79
2020/12/28 02:47:18;;;;;;;0.20;0.20;;;10.50;99.90;;;;;;20698474;28;20221;-71
2020/12/28 02:57:21;;;;;;;1.13;0.57;;;10.00;99.90;;;;;;20698002;28;20980;-70
2020/12/28 03:07:24;;;;;;;0.27;0.13;;;10.00;99.90;;;;;;20703870;28;20614;-71
2020/12/28 03:17:28;;;;;;;0.20;0.20;;;9.90;99.90;;;;;;20715368;28;20237;-70
2020/12/28 03:27:31;;;;;;;0.37;0.37;;;9.90;99.90;;;;;;20712257;28;20191;-70
2020/12/28 03:37:34;;;;;;;1.13;0.73;;;10.10;99.90;;;;;;20712019;28;20793;-71
2020/12/28 03:47:37;;;;;;;0.67;0.30;;;10.30;99.90;;;;;;20694818;28;20191;-73
2020/12/28 03:57:40;;;;;;;0.43;0.43;;;10.30;99.90;;;;;;20688764;28;20585;-72
2020/12/28 04:07:44;;;;;;;0.20;0.10;;;10.20;99.90;;;;;;20694456;28;20714;-71
2020/12/28 04:17:46;;;;;;;0.40;0.30;;;10.30;99.90;;;;;;20712016;28;20233;-71
2020/12/28 04:27:49;;;;;;;0.30;0.30;;;10.20;99.90;;;;;;20770505;28;20550;-69
2020/12/28 04:37:52;;;;;;;0.20;0.20;;;10.10;99.90;;;;;;20720357;28;20280;-72
2020/12/28 04:47:57;;;;;;;0.30;0.30;;;9.90;99.90;;;;;;20708221;28;20547;-70
2020/12/28 04:58:00;;;;;;;0.93;0.43;;;10.20;99.90;;;;;;20707633;28;20237;-70
2020/12/28 05:08:05;;;;;;;0.20;0.20;;;10.20;99.90;;;;;;20721422;22;20594;-77
2020/12/28 05:18:08;;;;;;;0.40;0.40;;;10.10;99.90;;;;;;20706050;28;20222;-79
2020/12/28 05:28:15;;;;;;;0.20;0.20;;;10.00;99.90;;;;;;20709482;28;20207;-77
2020/12/28 05:38:18;;;;;;;0.40;0.30;;;9.90;99.90;;;;;;20704517;28;20394;-76
2020/12/28 05:48:24;;;;;;;0.87;0.63;;;9.80;99.90;;;;;;20701538;28;20207;-80
2020/12/28 05:58:27;;;;;;;0.20;0.20;;;9.70;99.90;;;;;;20703556;28;20238;-75
2020/12/28 06:08:31;;;;;;;0.20;0.20;;;9.60;99.90;;;;;;20713951;28;20302;-76
2020/12/28 06:18:33;;;;;;;0.30;0.20;;;9.40;99.90;;;;;;20699945;28;20210;-76
2020/12/28 06:28:39;;;;;;;0.20;0.10;;;9.20;99.90;;;;;;20699368;28;20544;-75
2020/12/28 06:38:43;;;;;;;0.90;0.40;;;9.30;99.90;;;;;;20698372;28;20203;-75
2020/12/28 06:48:47;;;;;;;0.20;0.10;;;9.20;99.90;;;;;;20697622;28;20210;-78
2020/12/28 06:58:57;;;;;;;2.03;1.17;;;9.00;99.90;;;;;;20698364;28;20195;-78
2020/12/28 07:09:07;;;;;;;0.53;0.47;;;8.80;99.90;;;;;;20695854;28;20235;-76
2020/12/28 07:19:09;;;;;;;0.30;0.10;;;8.60;99.90;;;;;;20695590;28;20221;-77
2020/12/28 07:29:14;;;;;;;0.60;0.60;;;8.60;99.90;;;;;;20695312;28;20683;-77
2020/12/28 07:39:16;;;;;;;1.40;0.97;;;8.50;99.90;;;;;;20694707;28;20203;-77
2020/12/28 07:49:25;;;;;;;1.03;0.33;;;8.50;99.90;;;;;;20691978;28;20572;-77
2020/12/28 07:59:59;;;;;;;0.63;0.30;;;8.40;99.90;;;;;;20693142;28;20199;-77
2020/12/28 08:10:07;;;;;;;0.57;0.57;;;8.30;99.90;;;;;;20693535;28;20648;-75
2020/12/28 08:20:14;;;;;;;0.33;0.33;;;8.40;99.90;;;;;;20691126;28;20191;-79
2020/12/28 08:30:17;;;;;;;8.83;0.70;;;8.50;99.90;;;;;;20694671;28;20223;-84
2020/12/28 08:40:21;;;;;;;0.30;0.30;;;8.60;99.90;;;;;;20691665;28;20213;-76
2020/12/28 08:50:26;;;;;;;0.87;0.63;;;8.80;99.90;;;;;;20692770;28;20254;-79
2020/12/28 09:00:29;;;;;;;0.50;0.40;;;8.90;99.90;;;;;;20699899;28;20222;-75
2020/12/28 09:10:32;;;;;;;0.30;0.30;;;8.90;99.90;;;;;;20707577;28;20219;-77
2020/12/28 09:20:37;;;;;;;0.20;0.10;;;9.20;99.90;;;;;;20703035;28;20240;-78
2020/12/28 09:30:41;;;;;;;1.87;0.27;;;9.30;99.90;;;;;;20701938;28;20226;-79
2020/12/28 09:40:43;;;;;;;0.20;0.10;;;9.60;99.90;;;;;;20702412;28;20524;-74
2020/12/28 09:50:49;;;;;;;0.23;0.23;;;9.90;99.90;;;;;;20701300;28;20234;-81
2020/12/28 10:00:52;;;;;;;0.20;0.13;;;10.20;99.90;;;;;;20703352;28;20711;-78
2020/12/28 10:10:56;;;;;;;0.57;0.40;;;10.40;99.90;;;;;;20699475;28;20226;-79
2020/12/28 10:20:59;;;;;;;0.20;0.17;;;10.60;99.90;;;;;;20700761;28;20199;-79
2020/12/28 10:31:02;;;;;;;0.30;0.20;;;10.80;99.90;;;;;;20700306;28;20229;-75
2020/12/28 10:41:05;;;;;;;0.20;0.10;;;11.20;99.90;;;;;;20699519;28;20190;-77
2020/12/28 10:51:11;;;;;;;0.50;0.33;;;11.40;99.90;;;;;;20698621;28;20215;-77
2020/12/28 11:01:13;;;;;;;0.53;0.40;;;11.60;99.90;;;;;;20695566;28;20221;-77
2020/12/28 11:11:17;;;;;;;0.30;0.23;;;11.70;99.90;;;;;;20696661;28;20230;-77
2020/12/28 11:21:20;;;;;;;0.20;0.10;;;12.30;99.90;;;;;;20695341;28;20191;-78
2020/12/28 11:31:25;;;;;;;0.70;0.60;;;12.50;99.90;;;;;;20694823;28;20223;-83
2020/12/28 11:41:29;;;;;;;0.20;0.17;;;12.50;99.90;;;;;;20693700;28;20194;-75
2020/12/28 11:51:32;;;;;;;0.20;0.10;;;13.10;99.90;;;;;;20693254;28;20223;-78
2020/12/28 12:01:35;;;;;;;0.20;0.10;;;13.10;99.90;;;;;;20693956;28;20214;-78
2020/12/28 12:11:41;;;;;;;0.70;0.40;;;13.60;99.90;;;;;;20694325;28;20223;-77
2020/12/28 12:21:44;;;;;;;0.20;0.20;;;13.80;99.90;;;;;;20696323;28;20211;-77
2020/12/28 12:31:50;;;;;;;0.20;0.00;;;13.90;99.90;;;;;;20702721;28;20234;-77
2020/12/28 12:41:53;;;;;;;0.30;0.30;;;14.00;99.90;;;;;;20714184;28;20203;-80
2020/12/28 12:52:12;;;;;;;0.20;0.10;;;14.40;99.90;;;;;;20709545;28;20223;-79
2020/12/28 13:02:14;;;;;;;0.20;0.17;;;14.80;99.90;;;;;;20655975;28;20651;-75
2020/12/28 13:12:22;;;;;;;0.53;0.33;;;14.80;99.90;;;;;;20670414;28;20561;-78
2020/12/28 13:22:24;;;;;;;0.20;0.10;;;15.70;99.90;;;;;;20729576;28;20195;-76
2020/12/28 13:32:28;;;;;;;0.53;0.53;;;15.70;99.90;;;;;;20710263;28;20231;-78
2020/12/28 13:42:32;;;;;;;0.20;0.10;;;15.90;99.90;;;;;;20706043;28;20223;-81
2020/12/28 13:52:35;;;;;;;0.20;0.10;;;15.40;99.90;;;;;;20706547;28;20237;-79
2020/12/28 14:02:38;;;;;;;0.20;0.10;;;15.20;99.90;;;;;;20703922;28;20230;-78
2020/12/28 14:12:41;;;;;;;0.30;0.23;;;15.20;99.90;;;;;;20702170;28;20353;-79
2020/12/28 14:22:44;;;;;;;0.20;0.10;;;15.10;99.90;;;;;;20695261;28;20203;-80
2020/12/28 14:32:48;;;;;;;0.20;0.10;;;15.70;99.90;;;;;;20698933;28;20463;-80
2020/12/28 14:42:51;;;;;;;5.30;0.30;;;15.30;99.90;;;;;;20694891;28;20211;-79
2020/12/28 14:52:54;;;;;;;8.07;2.87;;;15.60;99.90;;;;;;20696047;28;20645;-79
2020/12/28 15:02:57;;;;;;;0.20;0.10;;;14.60;99.90;;;;;;20696433;28;20250;-78
2020/12/28 15:13:00;;;;;;;0.20;0.20;;;14.50;99.90;;;;;;20694293;28;20218;-79
2020/12/28 15:23:03;;;;;;;0.27;0.27;;;14.60;99.90;;;;;;20697315;28;20279;-78
2020/12/28 15:33:06;;;;;;;1.80;0.20;;;14.50;99.90;;;;;;20703185;28;20230;-77
2020/12/28 15:43:09;;;;;;;0.20;0.10;;;14.20;99.90;;;;;;20697822;28;20191;-81
2020/12/28 15:53:12;;;;;;;0.83;0.30;;;14.00;99.90;;;;;;20679153;28;20556;-79
2020/12/28 16:03:15;;;;;;;0.60;0.33;;;13.30;99.90;;;;;;20699162;28;20237;-80
2020/12/28 16:13:18;;;;;;;0.50;0.23;;;12.40;99.90;;;;;;20717362;28;20261;-80
2020/12/28 16:23:21;;;;;;;0.57;0.40;;;12.00;99.90;;;;;;20721427;28;20237;-76
2020/12/28 16:33:24;;;;;;;0.20;0.10;;;11.90;99.90;;;;;;20719569;28;20254;-78
2020/12/28 16:43:27;;;;;;;0.20;0.10;;;11.70;99.90;;;;;;20720896;28;20555;-76
2020/12/28 16:53:31;;;;;;;0.20;0.20;;;11.70;99.90;;;;;;20721717;28;20226;-78
2020/12/28 17:03:34;;;;;;;0.27;0.27;;;11.60;99.90;;;;;;20720246;28;20511;-76
2020/12/28 17:13:37;;;;;;;0.30;0.30;;;11.50;99.90;;;;;;20717899;28;20317;-75
2020/12/28 17:23:40;;;;;;;0.20;0.10;;;11.20;99.90;;;;;;20707199;28;20308;-79
2020/12/28 17:33:44;;;;;;;0.20;0.10;;;11.40;99.90;;;;;;20707726;28;20312;-80
2020/12/28 17:43:48;;;;;;;0.60;0.23;;;11.40;99.90;;;;;;20705697;28;20202;-76
2020/12/28 17:53:52;;;;;;;0.20;0.00;;;11.50;99.90;;;;;;20700001;28;20230;-75
2020/12/28 18:03:55;;;;;;;0.20;0.10;;;11.50;99.90;;;;;;20703888;28;20874;-74
2020/12/28 18:13:59;;;;;;;0.30;0.20;;;11.50;99.90;;;;;;20702531;28;20283;-73
2020/12/28 18:24:04;;;;;;;0.20;0.10;;;11.50;99.90;;;;;;20700195;28;20190;-76
2020/12/28 18:34:10;;;;;;;0.20;0.10;;;11.20;99.90;;;;;;20696971;28;20238;-73
2020/12/28 18:44:21;;;;;;;0.93;0.37;;;11.10;99.90;;;;;;20695349;28;20195;-74
2020/12/28 18:54:28;;;;;;;0.47;0.47;;;11.10;99.90;;;;;;20684181;28;20560;-76
2020/12/28 19:04:32;;;;;;;0.20;0.10;;;11.10;99.90;;;;;;20633804;28;20685;-74
2020/12/28 19:14:36;;;;;;;0.20;0.10;;;11.00;99.90;;;;;;20634470;28;20518;-76
2020/12/28 19:24:39;;;;;;;1.83;0.70;;;10.80;99.90;;;;;;20694137;28;20195;-75
2020/12/28 19:34:43;;;;;;;0.20;0.10;;;10.80;99.90;;;;;;20621720;28;20412;-79
2020/12/28 19:44:45;;;;;;;0.20;0.17;;;10.90;99.90;;;;;;20613884;28;20202;-76
2020/12/28 19:54:49;;;;;;;0.20;0.20;;;10.90;99.90;;;;;;20613270;28;20310;-73
2020/12/28 20:04:51;;;;;;;0.20;0.13;;;10.80;99.90;;;;;;20609773;28;20587;-70
2020/12/28 20:14:55;;;;;;;0.77;0.27;;;10.50;99.90;;;;;;20612022;28;20227;-71
2020/12/28 20:24:58;;;;;;;6.33;0.60;;;10.60;99.90;;;;;;20612009;28;20791;-74
2020/12/28 20:35:01;;;;;;;0.40;0.23;;;10.70;99.90;;;;;;20609966;28;20587;-72
2020/12/28 20:45:05;;;;;;;6.07;0.60;;;10.60;99.90;;;;;;20610261;28;20211;-73
2020/12/28 20:55:16;;;;;;;0.50;0.33;;;10.40;99.90;;;;;;20616493;28;20337;-74
2020/12/28 21:05:19;;;;;;;0.20;0.10;;;10.10;99.90;;;;;;20688171;28;20228;-79
2020/12/28 21:15:23;;;;;;;0.20;0.20;;;10.30;99.90;;;;;;20707093;28;20230;-75
2020/12/28 21:25:25;;;;;;;1.37;0.93;;;10.40;99.90;;;;;;20704950;28;20197;-83
2020/12/28 21:35:29;;;;;;;0.40;0.40;;;10.50;99.90;;;;;;20705437;28;20237;-79
2020/12/28 21:45:32;;;;;;;0.63;0.63;;;10.60;99.90;;;;;;20703434;28;20198;-75
2020/12/28 21:55:35;;;;;;;0.87;0.67;;;10.60;99.90;;;;;;20704232;28;20234;-74
2020/12/28 22:05:39;;;;;;;2.07;0.30;;;10.50;99.90;;;;;;20704151;28;20309;-74
2020/12/28 22:15:42;;;;;;;2.57;0.47;;;10.50;99.90;;;;;;20704931;28;20229;-73
2020/12/28 22:25:45;;;;;;;1.23;1.07;;;10.40;99.90;;;;;;20703921;28;20592;-75
2020/12/28 22:35:50;;;;;;;0.57;0.33;;;10.40;99.90;;;;;;20704238;28;20535;-73
2020/12/28 22:45:53;;;;;;;0.43;0.17;;;10.30;99.90;;;;;;20702101;28;20522;-74
2020/12/28 22:55:56;;;;;;;2.13;1.47;;;9.90;99.90;;;;;;20700737;28;20219;-74
2020/12/28 23:05:59;;;;;;;3.57;1.60;;;9.60;99.90;;;;;;20700647;28;20572;-74
2020/12/28 23:16:03;;;;;;;0.20;0.03;;;9.60;99.90;;;;;;20700249;28;20223;-74
2020/12/28 23:26:10;;;;;;;0.20;0.10;;;9.50;99.90;;;;;;20696529;28;20195;-80
2020/12/28 23:36:15;;;;;;;0.20;0.10;;;9.70;99.90;;;;;;20699942;28;20356;-74
2020/12/28 23:46:19;;;;;;;0.20;0.10;;;9.90;99.90;;;;;;20695896;28;20201;-75
2020/12/28 23:56:31;;;;;;;0.70;0.47;;;10.00;99.90;;;;;;20697865;28;20238;-73
